sensor_id;sensor_type;location;lat;lon;timestamp;P1;durP1;ratioP1;P2;durP2;ratioP2
20399;SDS011;10359;53.596;22.520;2022-10-16T00:01:39;26.67;;;19.57;;
20399;SDS011;10359;53.596;22.520;2022-10-16T00:04:08;28.27;;;20.13;;
20399;SDS011;10359;53.596;22.520;2022-10-16T00:06:37;26.30;;;18.90;;
20399;SDS011;10359;53.596;22.520;2022-10-16T00:09:08;24.33;;;18.07;;
20399;SDS011;10359;53.596;22.520;2022-10-16T00:11:39;26.43;;;19.50;;
20399;SDS011;10359;53.596;22.520;2022-10-16T00:14:09;25.47;;;20.20;;
20399;SDS011;10359;53.596;22.520;2022-10-16T00:16:44;28.30;;;20.10;;
20399;SDS011;10359;53.596;22.520;2022-10-16T00:19:13;28.07;;;20.07;;
20399;SDS011;10359;53.596;22.520;2022-10-16T00:21:42;24.23;;;19.00;;
20399;SDS011;10359;53.596;22.520;2022-10-16T00:24:13;28.20;;;19.37;;
20399;SDS011;10359;53.596;22.520;2022-10-16T00:26:43;27.87;;;19.60;;
20399;SDS011;10359;53.596;22.520;2022-10-16T00:29:12;24.67;;;19.07;;
20399;SDS011;10359;53.596;22.520;2022-10-16T00:31:42;26.80;;;20.50;;
20399;SDS011;10359;53.596;22.520;2022-10-16T00:34:11;26.70;;;18.83;;
20399;SDS011;10359;53.596;22.520;2022-10-16T00:36:40;23.97;;;19.23;;
20399;SDS011;10359;53.596;22.520;2022-10-16T00:39:10;30.30;;;19.80;;
20399;SDS011;10359;53.596;22.520;2022-10-16T00:41:40;25.40;;;19.30;;
20399;SDS011;10359;53.596;22.520;2022-10-16T00:47:15;27.87;;;20.27;;
20399;SDS011;10359;53.596;22.520;2022-10-16T00:49:50;26.03;;;18.57;;
20399;SDS011;10359;53.596;22.520;2022-10-16T00:52:21;31.00;;;19.17;;
20399;SDS011;10359;53.596;22.520;2022-10-16T00:54:52;25.50;;;18.47;;
20399;SDS011;10359;53.596;22.520;2022-10-16T00:57:24;28.90;;;19.70;;
20399;SDS011;10359;53.596;22.520;2022-10-16T00:59:59;27.37;;;19.03;;
20399;SDS011;10359;53.596;22.520;2022-10-16T01:02:29;26.93;;;18.80;;
20399;SDS011;10359;53.596;22.520;2022-10-16T01:04:58;25.70;;;18.50;;
20399;SDS011;10359;53.596;22.520;2022-10-16T01:07:30;23.83;;;18.23;;
20399;SDS011;10359;53.596;22.520;2022-10-16T01:10:07;23.73;;;19.10;;
20399;SDS011;10359;53.596;22.520;2022-10-16T01:12:46;24.97;;;18.57;;
20399;SDS011;10359;53.596;22.520;2022-10-16T01:15:24;28.27;;;19.40;;
20399;SDS011;10359;53.596;22.520;2022-10-16T01:17:58;24.97;;;18.10;;
20399;SDS011;10359;53.596;22.520;2022-10-16T01:20:35;24.10;;;18.33;;
20399;SDS011;10359;53.596;22.520;2022-10-16T01:23:11;26.20;;;18.97;;
20399;SDS011;10359;53.596;22.520;2022-10-16T01:25:53;24.50;;;18.77;;
20399;SDS011;10359;53.596;22.520;2022-10-16T01:28:44;26.37;;;19.50;;
20399;SDS011;10359;53.596;22.520;2022-10-16T01:31:18;25.47;;;18.83;;
20399;SDS011;10359;53.596;22.520;2022-10-16T01:33:54;24.93;;;19.30;;
20399;SDS011;10359;53.596;22.520;2022-10-16T01:36:28;25.07;;;18.53;;
20399;SDS011;10359;53.596;22.520;2022-10-16T01:39:03;23.33;;;18.33;;
20399;SDS011;10359;53.596;22.520;2022-10-16T01:41:35;25.97;;;19.80;;
20399;SDS011;10359;53.596;22.520;2022-10-16T01:44:10;25.53;;;18.90;;
20399;SDS011;10359;53.596;22.520;2022-10-16T01:46:44;26.43;;;19.83;;
20399;SDS011;10359;53.596;22.520;2022-10-16T01:49:16;30.17;;;19.93;;
20399;SDS011;10359;53.596;22.520;2022-10-16T01:51:47;27.40;;;19.90;;
20399;SDS011;10359;53.596;22.520;2022-10-16T01:54:20;24.50;;;18.80;;
20399;SDS011;10359;53.596;22.520;2022-10-16T01:56:54;26.20;;;19.57;;
20399;SDS011;10359;53.596;22.520;2022-10-16T01:59:26;26.53;;;19.17;;
20399;SDS011;10359;53.596;22.520;2022-10-16T02:02:00;23.90;;;18.33;;
20399;SDS011;10359;53.596;22.520;2022-10-16T02:04:34;24.33;;;18.53;;
20399;SDS011;10359;53.596;22.520;2022-10-16T02:07:06;25.77;;;19.13;;
20399;SDS011;10359;53.596;22.520;2022-10-16T02:09:36;25.10;;;19.00;;
20399;SDS011;10359;53.596;22.520;2022-10-16T02:12:08;27.23;;;19.73;;
20399;SDS011;10359;53.596;22.520;2022-10-16T02:14:46;28.70;;;19.33;;
20399;SDS011;10359;53.596;22.520;2022-10-16T02:17:16;28.97;;;19.67;;
20399;SDS011;10359;53.596;22.520;2022-10-16T02:19:46;30.13;;;20.37;;
20399;SDS011;10359;53.596;22.520;2022-10-16T02:22:20;24.27;;;19.13;;
20399;SDS011;10359;53.596;22.520;2022-10-16T02:24:54;26.03;;;19.83;;
20399;SDS011;10359;53.596;22.520;2022-10-16T02:27:27;28.13;;;20.03;;
20399;SDS011;10359;53.596;22.520;2022-10-16T02:30:04;24.63;;;18.70;;
20399;SDS011;10359;53.596;22.520;2022-10-16T02:32:37;27.90;;;20.47;;
20399;SDS011;10359;53.596;22.520;2022-10-16T02:35:08;25.07;;;19.37;;
20399;SDS011;10359;53.596;22.520;2022-10-16T02:37:38;28.63;;;20.07;;
20399;SDS011;10359;53.596;22.520;2022-10-16T02:40:08;24.23;;;19.00;;
20399;SDS011;10359;53.596;22.520;2022-10-16T02:42:39;22.83;;;18.53;;
20399;SDS011;10359;53.596;22.520;2022-10-16T02:45:10;25.17;;;19.07;;
20399;SDS011;10359;53.596;22.520;2022-10-16T02:47:39;22.73;;;18.23;;
20399;SDS011;10359;53.596;22.520;2022-10-16T02:50:08;24.63;;;19.13;;
20399;SDS011;10359;53.596;22.520;2022-10-16T02:52:37;24.77;;;18.43;;
20399;SDS011;10359;53.596;22.520;2022-10-16T02:55:06;24.40;;;18.40;;
20399;SDS011;10359;53.596;22.520;2022-10-16T02:57:36;24.47;;;18.47;;
20399;SDS011;10359;53.596;22.520;2022-10-16T03:00:07;25.07;;;17.93;;
20399;SDS011;10359;53.596;22.520;2022-10-16T03:02:40;26.37;;;19.50;;
20399;SDS011;10359;53.596;22.520;2022-10-16T03:05:09;23.93;;;17.53;;
20399;SDS011;10359;53.596;22.520;2022-10-16T03:07:38;22.97;;;17.70;;
20399;SDS011;10359;53.596;22.520;2022-10-16T03:10:08;22.60;;;17.93;;
20399;SDS011;10359;53.596;22.520;2022-10-16T03:12:37;22.10;;;18.53;;
20399;SDS011;10359;53.596;22.520;2022-10-16T03:15:06;26.57;;;19.13;;
20399;SDS011;10359;53.596;22.520;2022-10-16T03:17:37;22.90;;;18.20;;
20399;SDS011;10359;53.596;22.520;2022-10-16T03:20:06;23.53;;;18.63;;
20399;SDS011;10359;53.596;22.520;2022-10-16T03:22:36;26.27;;;19.80;;
20399;SDS011;10359;53.596;22.520;2022-10-16T03:25:05;30.03;;;20.07;;
20399;SDS011;10359;53.596;22.520;2022-10-16T03:27:35;27.00;;;19.07;;
20399;SDS011;10359;53.596;22.520;2022-10-16T03:30:04;28.83;;;19.97;;
20399;SDS011;10359;53.596;22.520;2022-10-16T03:32:33;28.00;;;19.43;;
20399;SDS011;10359;53.596;22.520;2022-10-16T03:35:04;29.43;;;21.30;;
20399;SDS011;10359;53.596;22.520;2022-10-16T03:37:34;29.47;;;21.07;;
20399;SDS011;10359;53.596;22.520;2022-10-16T03:40:03;28.90;;;20.97;;
20399;SDS011;10359;53.596;22.520;2022-10-16T03:42:33;26.70;;;20.37;;
20399;SDS011;10359;53.596;22.520;2022-10-16T03:45:02;29.87;;;21.13;;
20399;SDS011;10359;53.596;22.520;2022-10-16T03:47:31;33.47;;;22.00;;
20399;SDS011;10359;53.596;22.520;2022-10-16T03:50:01;29.23;;;19.93;;
20399;SDS011;10359;53.596;22.520;2022-10-16T03:52:32;26.67;;;21.57;;
20399;SDS011;10359;53.596;22.520;2022-10-16T03:55:01;28.03;;;21.63;;
20399;SDS011;10359;53.596;22.520;2022-10-16T03:57:30;26.80;;;20.60;;
20399;SDS011;10359;53.596;22.520;2022-10-16T03:59:59;27.93;;;21.83;;
20399;SDS011;10359;53.596;22.520;2022-10-16T04:02:28;30.27;;;22.33;;
20399;SDS011;10359;53.596;22.520;2022-10-16T04:04:57;29.57;;;21.00;;
20399;SDS011;10359;53.596;22.520;2022-10-16T04:07:26;28.47;;;21.00;;
20399;SDS011;10359;53.596;22.520;2022-10-16T04:09:56;30.23;;;21.30;;
20399;SDS011;10359;53.596;22.520;2022-10-16T04:12:25;31.60;;;20.83;;
20399;SDS011;10359;53.596;22.520;2022-10-16T04:14:55;27.40;;;20.63;;
20399;SDS011;10359;53.596;22.520;2022-10-16T04:17:23;29.27;;;21.87;;
20399;SDS011;10359;53.596;22.520;2022-10-16T04:19:53;27.57;;;20.07;;
20399;SDS011;10359;53.596;22.520;2022-10-16T04:22:22;28.47;;;19.93;;
20399;SDS011;10359;53.596;22.520;2022-10-16T04:24:52;24.00;;;19.40;;
20399;SDS011;10359;53.596;22.520;2022-10-16T04:27:23;27.10;;;20.90;;
20399;SDS011;10359;53.596;22.520;2022-10-16T04:29:52;25.77;;;19.70;;
20399;SDS011;10359;53.596;22.520;2022-10-16T04:32:21;26.70;;;19.37;;
20399;SDS011;10359;53.596;22.520;2022-10-16T04:34:50;24.20;;;20.27;;
20399;SDS011;10359;53.596;22.520;2022-10-16T04:37:22;23.30;;;17.40;;
20399;SDS011;10359;53.596;22.520;2022-10-16T04:39:53;26.97;;;19.97;;
20399;SDS011;10359;53.596;22.520;2022-10-16T04:42:23;25.23;;;19.47;;
20399;SDS011;10359;53.596;22.520;2022-10-16T04:44:52;25.57;;;18.50;;
20399;SDS011;10359;53.596;22.520;2022-10-16T04:47:21;27.20;;;19.40;;
20399;SDS011;10359;53.596;22.520;2022-10-16T04:49:50;27.23;;;20.93;;
20399;SDS011;10359;53.596;22.520;2022-10-16T04:52:19;25.77;;;19.50;;
20399;SDS011;10359;53.596;22.520;2022-10-16T04:54:51;26.30;;;19.20;;
20399;SDS011;10359;53.596;22.520;2022-10-16T04:57:20;28.53;;;20.17;;
20399;SDS011;10359;53.596;22.520;2022-10-16T04:59:51;27.77;;;19.97;;
20399;SDS011;10359;53.596;22.520;2022-10-16T05:02:20;24.60;;;19.40;;
20399;SDS011;10359;53.596;22.520;2022-10-16T05:04:49;25.53;;;18.83;;
20399;SDS011;10359;53.596;22.520;2022-10-16T05:07:18;25.20;;;19.70;;
20399;SDS011;10359;53.596;22.520;2022-10-16T05:09:48;23.30;;;19.10;;
20399;SDS011;10359;53.596;22.520;2022-10-16T05:12:17;24.37;;;18.97;;
20399;SDS011;10359;53.596;22.520;2022-10-16T05:14:47;23.73;;;18.80;;
20399;SDS011;10359;53.596;22.520;2022-10-16T05:17:16;25.97;;;20.27;;
20399;SDS011;10359;53.596;22.520;2022-10-16T05:19:45;27.83;;;20.73;;
20399;SDS011;10359;53.596;22.520;2022-10-16T05:22:14;26.40;;;20.53;;
20399;SDS011;10359;53.596;22.520;2022-10-16T05:24:43;24.60;;;19.33;;
20399;SDS011;10359;53.596;22.520;2022-10-16T05:27:12;24.07;;;18.27;;
20399;SDS011;10359;53.596;22.520;2022-10-16T05:29:47;29.03;;;20.10;;
20399;SDS011;10359;53.596;22.520;2022-10-16T05:32:17;24.57;;;20.70;;
20399;SDS011;10359;53.596;22.520;2022-10-16T05:34:46;24.20;;;19.93;;
20399;SDS011;10359;53.596;22.520;2022-10-16T05:37:15;22.00;;;18.57;;
20399;SDS011;10359;53.596;22.520;2022-10-16T05:39:44;24.87;;;18.33;;
20399;SDS011;10359;53.596;22.520;2022-10-16T05:42:13;28.80;;;20.40;;
20399;SDS011;10359;53.596;22.520;2022-10-16T05:44:42;25.03;;;18.83;;
20399;SDS011;10359;53.596;22.520;2022-10-16T05:47:13;22.17;;;18.53;;
20399;SDS011;10359;53.596;22.520;2022-10-16T05:49:42;27.53;;;19.17;;
20399;SDS011;10359;53.596;22.520;2022-10-16T05:52:11;22.10;;;18.73;;
20399;SDS011;10359;53.596;22.520;2022-10-16T05:54:40;22.90;;;18.93;;
20399;SDS011;10359;53.596;22.520;2022-10-16T05:57:09;22.27;;;17.63;;
20399;SDS011;10359;53.596;22.520;2022-10-16T05:59:38;24.13;;;19.30;;
20399;SDS011;10359;53.596;22.520;2022-10-16T06:02:08;23.57;;;18.50;;
20399;SDS011;10359;53.596;22.520;2022-10-16T06:04:41;20.83;;;18.13;;
20399;SDS011;10359;53.596;22.520;2022-10-16T06:07:10;24.07;;;18.17;;
20399;SDS011;10359;53.596;22.520;2022-10-16T06:09:39;23.60;;;18.63;;
20399;SDS011;10359;53.596;22.520;2022-10-16T06:12:09;23.03;;;19.00;;
20399;SDS011;10359;53.596;22.520;2022-10-16T06:14:40;24.30;;;18.97;;
20399;SDS011;10359;53.596;22.520;2022-10-16T06:17:10;25.57;;;18.20;;
20399;SDS011;10359;53.596;22.520;2022-10-16T06:19:40;25.07;;;19.20;;
20399;SDS011;10359;53.596;22.520;2022-10-16T06:22:09;25.77;;;19.80;;
20399;SDS011;10359;53.596;22.520;2022-10-16T06:24:39;25.97;;;20.77;;
20399;SDS011;10359;53.596;22.520;2022-10-16T06:27:08;28.23;;;21.47;;
20399;SDS011;10359;53.596;22.520;2022-10-16T06:29:37;26.53;;;19.63;;
20399;SDS011;10359;53.596;22.520;2022-10-16T06:32:06;25.53;;;20.90;;
20399;SDS011;10359;53.596;22.520;2022-10-16T06:34:35;25.40;;;20.33;;
20399;SDS011;10359;53.596;22.520;2022-10-16T06:37:10;28.33;;;19.70;;
20399;SDS011;10359;53.596;22.520;2022-10-16T06:39:39;27.70;;;22.20;;
20399;SDS011;10359;53.596;22.520;2022-10-16T06:42:07;24.90;;;21.13;;
20399;SDS011;10359;53.596;22.520;2022-10-16T06:44:36;30.87;;;21.70;;
20399;SDS011;10359;53.596;22.520;2022-10-16T06:47:05;25.47;;;21.40;;
20399;SDS011;10359;53.596;22.520;2022-10-16T06:49:34;26.30;;;22.13;;
20399;SDS011;10359;53.596;22.520;2022-10-16T06:52:03;32.17;;;23.13;;
20399;SDS011;10359;53.596;22.520;2022-10-16T06:54:34;29.43;;;22.83;;
20399;SDS011;10359;53.596;22.520;2022-10-16T06:57:08;29.67;;;22.60;;
20399;SDS011;10359;53.596;22.520;2022-10-16T06:59:37;26.20;;;21.30;;
20399;SDS011;10359;53.596;22.520;2022-10-16T07:02:10;26.57;;;21.90;;
20399;SDS011;10359;53.596;22.520;2022-10-16T07:04:39;28.13;;;20.27;;
20399;SDS011;10359;53.596;22.520;2022-10-16T07:07:08;29.83;;;22.73;;
20399;SDS011;10359;53.596;22.520;2022-10-16T07:09:38;26.60;;;22.93;;
20399;SDS011;10359;53.596;22.520;2022-10-16T07:12:08;29.80;;;23.60;;
20399;SDS011;10359;53.596;22.520;2022-10-16T07:14:37;27.43;;;20.47;;
20399;SDS011;10359;53.596;22.520;2022-10-16T07:17:06;31.10;;;22.33;;
20399;SDS011;10359;53.596;22.520;2022-10-16T07:19:35;26.83;;;20.60;;
20399;SDS011;10359;53.596;22.520;2022-10-16T07:22:04;29.63;;;21.10;;
20399;SDS011;10359;53.596;22.520;2022-10-16T07:24:33;27.53;;;20.80;;
20399;SDS011;10359;53.596;22.520;2022-10-16T07:27:03;26.23;;;20.60;;
20399;SDS011;10359;53.596;22.520;2022-10-16T07:29:32;30.47;;;21.10;;
20399;SDS011;10359;53.596;22.520;2022-10-16T07:32:01;28.47;;;21.80;;
20399;SDS011;10359;53.596;22.520;2022-10-16T07:34:30;24.83;;;20.03;;
20399;SDS011;10359;53.596;22.520;2022-10-16T07:37:00;25.47;;;21.23;;
20399;SDS011;10359;53.596;22.520;2022-10-16T07:39:28;22.80;;;18.63;;
20399;SDS011;10359;53.596;22.520;2022-10-16T07:41:57;27.30;;;21.23;;
20399;SDS011;10359;53.596;22.520;2022-10-16T07:44:28;25.23;;;20.07;;
20399;SDS011;10359;53.596;22.520;2022-10-16T07:46:57;23.37;;;18.90;;
20399;SDS011;10359;53.596;22.520;2022-10-16T07:49:25;23.40;;;19.10;;
20399;SDS011;10359;53.596;22.520;2022-10-16T07:51:55;23.10;;;19.13;;
20399;SDS011;10359;53.596;22.520;2022-10-16T07:54:24;24.07;;;19.47;;
20399;SDS011;10359;53.596;22.520;2022-10-16T07:56:53;22.97;;;19.00;;
20399;SDS011;10359;53.596;22.520;2022-10-16T07:59:22;23.57;;;19.03;;
20399;SDS011;10359;53.596;22.520;2022-10-16T08:01:52;21.83;;;18.53;;
20399;SDS011;10359;53.596;22.520;2022-10-16T08:04:21;21.50;;;18.03;;
20399;SDS011;10359;53.596;22.520;2022-10-16T08:06:50;23.10;;;18.60;;
20399;SDS011;10359;53.596;22.520;2022-10-16T08:09:20;20.80;;;17.50;;
20399;SDS011;10359;53.596;22.520;2022-10-16T08:11:50;20.20;;;18.07;;
20399;SDS011;10359;53.596;22.520;2022-10-16T08:14:22;22.77;;;17.87;;
20399;SDS011;10359;53.596;22.520;2022-10-16T08:16:52;20.57;;;16.93;;
20399;SDS011;10359;53.596;22.520;2022-10-16T08:19:21;20.33;;;16.93;;
20399;SDS011;10359;53.596;22.520;2022-10-16T08:21:50;21.10;;;17.90;;
20399;SDS011;10359;53.596;22.520;2022-10-16T08:24:19;22.30;;;17.23;;
20399;SDS011;10359;53.596;22.520;2022-10-16T08:26:48;22.77;;;16.87;;
20399;SDS011;10359;53.596;22.520;2022-10-16T08:29:17;17.83;;;15.87;;
20399;SDS011;10359;53.596;22.520;2022-10-16T08:31:46;20.67;;;16.50;;
20399;SDS011;10359;53.596;22.520;2022-10-16T08:34:16;19.43;;;17.33;;
20399;SDS011;10359;53.596;22.520;2022-10-16T08:36:45;21.90;;;16.67;;
20399;SDS011;10359;53.596;22.520;2022-10-16T08:39:15;18.77;;;16.43;;
20399;SDS011;10359;53.596;22.520;2022-10-16T08:42:03;19.40;;;16.13;;
20399;SDS011;10359;53.596;22.520;2022-10-16T08:44:43;20.10;;;16.90;;
20399;SDS011;10359;53.596;22.520;2022-10-16T08:47:33;22.10;;;17.37;;
20399;SDS011;10359;53.596;22.520;2022-10-16T08:50:13;20.03;;;16.20;;
20399;SDS011;10359;53.596;22.520;2022-10-16T08:52:46;22.03;;;17.07;;
20399;SDS011;10359;53.596;22.520;2022-10-16T08:55:19;19.10;;;17.03;;
20399;SDS011;10359;53.596;22.520;2022-10-16T08:57:59;18.67;;;16.50;;
20399;SDS011;10359;53.596;22.520;2022-10-16T09:00:28;18.10;;;16.20;;
20399;SDS011;10359;53.596;22.520;2022-10-16T09:03:00;19.93;;;16.93;;
20399;SDS011;10359;53.596;22.520;2022-10-16T09:05:44;19.23;;;15.83;;
20399;SDS011;10359;53.596;22.520;2022-10-16T09:08:35;19.87;;;16.07;;
20399;SDS011;10359;53.596;22.520;2022-10-16T09:11:15;19.97;;;16.90;;
20399;SDS011;10359;53.596;22.520;2022-10-16T09:13:54;19.17;;;14.93;;
20399;SDS011;10359;53.596;22.520;2022-10-16T09:16:32;18.23;;;15.13;;
20399;SDS011;10359;53.596;22.520;2022-10-16T09:19:09;19.87;;;16.13;;
20399;SDS011;10359;53.596;22.520;2022-10-16T09:21:44;17.13;;;15.30;;
20399;SDS011;10359;53.596;22.520;2022-10-16T09:24:15;19.43;;;16.57;;
20399;SDS011;10359;53.596;22.520;2022-10-16T09:26:45;19.73;;;15.90;;
20399;SDS011;10359;53.596;22.520;2022-10-16T09:29:15;22.10;;;15.40;;
20399;SDS011;10359;53.596;22.520;2022-10-16T09:31:46;18.47;;;16.33;;
20399;SDS011;10359;53.596;22.520;2022-10-16T09:34:17;19.47;;;14.90;;
20399;SDS011;10359;53.596;22.520;2022-10-16T09:36:54;18.07;;;15.37;;
20399;SDS011;10359;53.596;22.520;2022-10-16T09:39:25;19.50;;;15.87;;
20399;SDS011;10359;53.596;22.520;2022-10-16T09:41:54;19.03;;;15.40;;
20399;SDS011;10359;53.596;22.520;2022-10-16T09:44:24;19.20;;;14.53;;
20399;SDS011;10359;53.596;22.520;2022-10-16T09:47:03;16.93;;;15.13;;
20399;SDS011;10359;53.596;22.520;2022-10-16T09:49:33;17.97;;;14.23;;
20399;SDS011;10359;53.596;22.520;2022-10-16T09:52:11;16.73;;;14.83;;
20399;SDS011;10359;53.596;22.520;2022-10-16T09:54:48;18.47;;;15.13;;
20399;SDS011;10359;53.596;22.520;2022-10-16T09:57:19;16.50;;;14.10;;
20399;SDS011;10359;53.596;22.520;2022-10-16T09:59:49;19.00;;;14.77;;
20399;SDS011;10359;53.596;22.520;2022-10-16T10:02:20;18.13;;;13.57;;
20399;SDS011;10359;53.596;22.520;2022-10-16T10:04:56;16.53;;;14.40;;
20399;SDS011;10359;53.596;22.520;2022-10-16T10:07:27;15.67;;;13.97;;
20399;SDS011;10359;53.596;22.520;2022-10-16T10:10:01;17.60;;;13.87;;
20399;SDS011;10359;53.596;22.520;2022-10-16T10:12:32;16.53;;;13.90;;
20399;SDS011;10359;53.596;22.520;2022-10-16T10:15:04;15.63;;;13.93;;
20399;SDS011;10359;53.596;22.520;2022-10-16T10:17:44;20.07;;;14.37;;
20399;SDS011;10359;53.596;22.520;2022-10-16T10:20:18;14.67;;;13.07;;
20399;SDS011;10359;53.596;22.520;2022-10-16T10:22:53;14.70;;;12.53;;
20399;SDS011;10359;53.596;22.520;2022-10-16T10:28:26;14.10;;;12.63;;
20399;SDS011;10359;53.596;22.520;2022-10-16T10:31:06;15.43;;;12.77;;
20399;SDS011;10359;53.596;22.520;2022-10-16T10:33:41;16.10;;;13.77;;
20399;SDS011;10359;53.596;22.520;2022-10-16T10:36:16;13.90;;;12.50;;
20399;SDS011;10359;53.596;22.520;2022-10-16T10:38:58;15.50;;;12.37;;
20399;SDS011;10359;53.596;22.520;2022-10-16T10:44:27;13.73;;;12.40;;
20399;SDS011;10359;53.596;22.520;2022-10-16T10:47:12;16.13;;;12.53;;
20399;SDS011;10359;53.596;22.520;2022-10-16T10:49:53;15.07;;;11.87;;
20399;SDS011;10359;53.596;22.520;2022-10-16T10:55:31;13.23;;;11.83;;
20399;SDS011;10359;53.596;22.520;2022-10-16T10:58:20;15.17;;;12.80;;
20399;SDS011;10359;53.596;22.520;2022-10-16T11:01:12;14.40;;;12.03;;
20399;SDS011;10359;53.596;22.520;2022-10-16T11:03:54;14.57;;;12.27;;
20399;SDS011;10359;53.596;22.520;2022-10-16T11:06:40;13.47;;;11.47;;
20399;SDS011;10359;53.596;22.520;2022-10-16T11:09:15;14.00;;;12.50;;
20399;SDS011;10359;53.596;22.520;2022-10-16T11:11:49;14.87;;;12.00;;
20399;SDS011;10359;53.596;22.520;2022-10-16T11:14:28;13.20;;;11.80;;
20399;SDS011;10359;53.596;22.520;2022-10-16T11:17:04;14.60;;;11.80;;
20399;SDS011;10359;53.596;22.520;2022-10-16T11:19:39;14.20;;;12.70;;
20399;SDS011;10359;53.596;22.520;2022-10-16T11:22:16;13.33;;;11.53;;
20399;SDS011;10359;53.596;22.520;2022-10-16T11:24:48;15.00;;;11.73;;
20399;SDS011;10359;53.596;22.520;2022-10-16T11:27:25;12.60;;;11.30;;
20399;SDS011;10359;53.596;22.520;2022-10-16T11:30:02;14.73;;;11.50;;
20399;SDS011;10359;53.596;22.520;2022-10-16T11:32:34;13.87;;;11.40;;
20399;SDS011;10359;53.596;22.520;2022-10-16T11:35:11;13.23;;;11.00;;
20399;SDS011;10359;53.596;22.520;2022-10-16T11:37:46;12.97;;;10.53;;
20399;SDS011;10359;53.596;22.520;2022-10-16T11:40:19;13.30;;;10.33;;
20399;SDS011;10359;53.596;22.520;2022-10-16T11:42:55;33.50;;;13.27;;
20399;SDS011;10359;53.596;22.520;2022-10-16T11:45:32;13.77;;;10.00;;
20399;SDS011;10359;53.596;22.520;2022-10-16T11:48:07;14.60;;;10.87;;
20399;SDS011;10359;53.596;22.520;2022-10-16T11:50:48;12.57;;;10.50;;
20399;SDS011;10359;53.596;22.520;2022-10-16T11:53:23;10.87;;;9.77;;
20399;SDS011;10359;53.596;22.520;2022-10-16T11:56:06;12.60;;;10.20;;
20399;SDS011;10359;53.596;22.520;2022-10-16T11:58:37;13.47;;;10.13;;
20399;SDS011;10359;53.596;22.520;2022-10-16T12:01:15;13.77;;;10.20;;
20399;SDS011;10359;53.596;22.520;2022-10-16T12:04:04;11.17;;;9.97;;
20399;SDS011;10359;53.596;22.520;2022-10-16T12:06:42;10.60;;;9.60;;
20399;SDS011;10359;53.596;22.520;2022-10-16T12:09:15;12.40;;;9.40;;
20399;SDS011;10359;53.596;22.520;2022-10-16T12:11:49;12.67;;;11.37;;
20399;SDS011;10359;53.596;22.520;2022-10-16T12:14:21;11.80;;;10.20;;
20399;SDS011;10359;53.596;22.520;2022-10-16T12:17:27;13.57;;;10.40;;
20399;SDS011;10359;53.596;22.520;2022-10-16T12:20:18;12.57;;;10.10;;
20399;SDS011;10359;53.596;22.520;2022-10-16T12:22:50;12.00;;;9.00;;
20399;SDS011;10359;53.596;22.520;2022-10-16T12:25:23;10.63;;;9.43;;
20399;SDS011;10359;53.596;22.520;2022-10-16T12:27:56;9.83;;;8.83;;
20399;SDS011;10359;53.596;22.520;2022-10-16T12:30:29;11.90;;;10.47;;
20399;SDS011;10359;53.596;22.520;2022-10-16T12:33:02;12.57;;;11.20;;
20399;SDS011;10359;53.596;22.520;2022-10-16T12:35:33;12.27;;;10.97;;
20399;SDS011;10359;53.596;22.520;2022-10-16T12:38:17;13.77;;;10.70;;
20399;SDS011;10359;53.596;22.520;2022-10-16T12:40:54;12.90;;;11.53;;
20399;SDS011;10359;53.596;22.520;2022-10-16T12:43:27;12.43;;;10.93;;
20399;SDS011;10359;53.596;22.520;2022-10-16T12:46:20;12.87;;;11.60;;
20399;SDS011;10359;53.596;22.520;2022-10-16T12:48:52;12.17;;;10.60;;
20399;SDS011;10359;53.596;22.520;2022-10-16T12:51:34;12.67;;;11.43;;
20399;SDS011;10359;53.596;22.520;2022-10-16T12:54:10;12.67;;;11.37;;
20399;SDS011;10359;53.596;22.520;2022-10-16T12:56:43;13.33;;;10.53;;
20399;SDS011;10359;53.596;22.520;2022-10-16T12:59:21;12.40;;;10.60;;
20399;SDS011;10359;53.596;22.520;2022-10-16T13:02:16;12.67;;;10.97;;
20399;SDS011;10359;53.596;22.520;2022-10-16T13:08:11;13.00;;;10.80;;
20399;SDS011;10359;53.596;22.520;2022-10-16T13:10:55;12.47;;;11.17;;
20399;SDS011;10359;53.596;22.520;2022-10-16T13:13:36;13.77;;;10.27;;
20399;SDS011;10359;53.596;22.520;2022-10-16T13:16:23;16.27;;;10.40;;
20399;SDS011;10359;53.596;22.520;2022-10-16T13:19:08;15.87;;;11.07;;
20399;SDS011;10359;53.596;22.520;2022-10-16T13:21:47;12.67;;;10.73;;
20399;SDS011;10359;53.596;22.520;2022-10-16T13:24:25;14.10;;;10.23;;
20399;SDS011;10359;53.596;22.520;2022-10-16T13:27:05;12.87;;;10.60;;
20399;SDS011;10359;53.596;22.520;2022-10-16T13:29:41;11.57;;;10.37;;
20399;SDS011;10359;53.596;22.520;2022-10-16T13:32:11;14.97;;;11.37;;
20399;SDS011;10359;53.596;22.520;2022-10-16T13:34:46;11.50;;;10.30;;
20399;SDS011;10359;53.596;22.520;2022-10-16T13:37:16;12.00;;;10.53;;
20399;SDS011;10359;53.596;22.520;2022-10-16T13:39:47;13.00;;;10.70;;
20399;SDS011;10359;53.596;22.520;2022-10-16T13:42:20;13.10;;;10.40;;
20399;SDS011;10359;53.596;22.520;2022-10-16T13:44:54;12.50;;;11.20;;
20399;SDS011;10359;53.596;22.520;2022-10-16T13:47:25;11.40;;;10.20;;
20399;SDS011;10359;53.596;22.520;2022-10-16T13:50:00;11.33;;;9.97;;
20399;SDS011;10359;53.596;22.520;2022-10-16T13:52:33;13.70;;;10.70;;
20399;SDS011;10359;53.596;22.520;2022-10-16T13:55:02;12.43;;;10.60;;
20399;SDS011;10359;53.596;22.520;2022-10-16T13:57:32;11.87;;;10.33;;
20399;SDS011;10359;53.596;22.520;2022-10-16T14:00:01;13.23;;;11.27;;
20399;SDS011;10359;53.596;22.520;2022-10-16T14:02:31;14.60;;;10.97;;
20399;SDS011;10359;53.596;22.520;2022-10-16T14:05:08;13.50;;;11.10;;
20399;SDS011;10359;53.596;22.520;2022-10-16T14:07:38;13.03;;;11.03;;
20399;SDS011;10359;53.596;22.520;2022-10-16T14:10:18;12.87;;;10.67;;
20399;SDS011;10359;53.596;22.520;2022-10-16T14:12:55;14.20;;;10.63;;
20399;SDS011;10359;53.596;22.520;2022-10-16T14:15:26;13.47;;;10.67;;
20399;SDS011;10359;53.596;22.520;2022-10-16T14:17:57;12.67;;;10.90;;
20399;SDS011;10359;53.596;22.520;2022-10-16T14:20:29;14.17;;;10.53;;
20399;SDS011;10359;53.596;22.520;2022-10-16T14:23:01;12.70;;;10.73;;
20399;SDS011;10359;53.596;22.520;2022-10-16T14:25:32;14.60;;;11.37;;
20399;SDS011;10359;53.596;22.520;2022-10-16T14:28:02;14.00;;;10.83;;
20399;SDS011;10359;53.596;22.520;2022-10-16T14:30:32;14.53;;;11.20;;
20399;SDS011;10359;53.596;22.520;2022-10-16T14:33:04;14.17;;;11.03;;
20399;SDS011;10359;53.596;22.520;2022-10-16T14:35:38;12.70;;;11.17;;
20399;SDS011;10359;53.596;22.520;2022-10-16T14:38:14;13.17;;;11.27;;
20399;SDS011;10359;53.596;22.520;2022-10-16T14:40:48;13.10;;;10.83;;
20399;SDS011;10359;53.596;22.520;2022-10-16T14:43:20;13.00;;;11.47;;
20399;SDS011;10359;53.596;22.520;2022-10-16T14:45:51;13.17;;;11.10;;
20399;SDS011;10359;53.596;22.520;2022-10-16T14:48:23;13.57;;;11.70;;
20399;SDS011;10359;53.596;22.520;2022-10-16T14:50:54;12.03;;;10.80;;
20399;SDS011;10359;53.596;22.520;2022-10-16T14:53:23;13.43;;;12.03;;
20399;SDS011;10359;53.596;22.520;2022-10-16T14:55:52;13.13;;;11.57;;